Time;durP1;ratioP1;P1;durP2;ratioP2;P2;SDS_P1;SDS_P2;PMS_P1;PMS_P2;Temp;Humidity;BMP_temperature;BMP_pressure;BME280_temperature;BME280_humidity;BME280_pressure;Samples;Min_cycle;Max_cycle;Signal;HPM_P1;HPM_P2
2022/07/31 00:00:43;;;;;;;4.75;4.28;;;18.20;99.90;;;;;;5017666;28;20179;-83
2022/07/31 00:03:09;;;;;;;6.38;4.45;;;18.20;99.90;;;;;;5016814;28;20210;-83
2022/07/31 00:05:35;;;;;;;5.15;4.40;;;18.20;99.90;;;;;;5035023;28;20186;-83
2022/07/31 00:08:01;;;;;;;9.43;4.30;;;18.20;99.90;;;;;;5017148;28;20184;-83
2022/07/31 00:10:27;;;;;;;6.28;4.93;;;18.20;99.90;;;;;;5017436;28;20213;-83
2022/07/31 00:12:53;;;;;;;5.93;4.13;;;18.20;99.90;;;;;;5013596;28;20210;-84
2022/07/31 00:15:18;;;;;;;4.90;4.40;;;18.20;99.90;;;;;;4997696;28;20528;-83
2022/07/31 00:17:44;;;;;;;9.32;4.68;;;18.20;99.90;;;;;;5014254;28;20232;-84
2022/07/31 00:20:12;;;;;;;6.25;4.53;;;18.20;99.90;;;;;;5006471;28;20179;-84
2022/07/31 00:22:39;;;;;;;5.15;4.63;;;18.10;99.90;;;;;;4997276;28;20187;-83
2022/07/31 00:25:08;;;;;;;5.53;4.90;;;18.10;99.90;;;;;;5015413;28;20183;-84
2022/07/31 00:27:34;;;;;;;7.18;4.80;;;18.00;99.90;;;;;;5013995;28;20269;-84
2022/07/31 00:30:00;;;;;;;6.03;4.53;;;18.00;99.90;;;;;;5034803;28;20286;-83
2022/07/31 00:32:25;;;;;;;7.63;4.20;;;18.00;99.90;;;;;;5016188;28;20182;-84
2022/07/31 00:34:51;;;;;;;5.30;4.60;;;17.90;99.90;;;;;;5013222;28;20179;-83
2022/07/31 00:37:17;;;;;;;4.60;4.20;;;18.00;99.90;;;;;;5009859;28;20191;-84
2022/07/31 00:39:43;;;;;;;5.13;4.53;;;18.00;99.90;;;;;;5034600;28;20222;-84
2022/07/31 00:42:23;;;;;;;6.97;4.28;;;18.00;99.90;;;;;;5034562;28;20264;-82
2022/07/31 00:44:49;;;;;;;6.28;4.90;;;17.90;99.90;;;;;;5016670;28;20240;-82
2022/07/31 00:47:16;;;;;;;5.50;4.22;;;17.90;99.90;;;;;;5016623;28;20539;-83
2022/07/31 00:49:42;;;;;;;5.90;5.03;;;17.90;99.90;;;;;;5435135;23;20399;-89
2022/07/31 00:52:08;;;;;;;7.20;4.68;;;17.90;99.90;;;;;;4993455;28;20199;-90
2022/07/31 00:54:34;;;;;;;6.05;4.05;;;17.80;99.90;;;;;;4980251;28;20271;-89
2022/07/31 00:57:00;;;;;;;4.72;3.92;;;17.80;99.90;;;;;;4994063;28;20239;-89
2022/07/31 00:59:30;;;;;;;4.32;3.67;;;17.80;99.90;;;;;;4993350;28;20183;-91
2022/07/31 01:02:12;;;;;;;6.53;4.35;;;17.70;99.90;;;;;;4980977;28;20176;-90
2022/07/31 01:04:38;;;;;;;5.40;4.20;;;17.70;99.90;;;;;;4983125;28;20204;-95
2022/07/31 01:07:04;;;;;;;5.45;4.60;;;17.70;99.90;;;;;;4999805;28;20252;-93
2022/07/31 01:09:29;;;;;;;4.60;4.20;;;17.70;99.90;;;;;;5000561;28;20180;-96
2022/07/31 01:12:21;;;;;;;4.90;4.40;;;17.70;99.90;;;;;;4999508;28;20211;-95
2022/07/31 01:14:55;;;;;;;5.70;4.40;;;17.70;99.90;;;;;;4997038;28;20275;-95
2022/07/31 01:17:23;;;;;;;6.57;4.60;;;17.70;99.90;;;;;;4983804;28;20187;-96
2022/07/31 01:19:53;;;;;;;4.95;4.50;;;17.70;99.90;;;;;;4989962;28;20180;-92
2022/07/31 01:22:57;;;;;;;6.18;4.97;;;17.70;99.90;;;;;;4998872;28;20183;-93
2022/07/31 01:25:36;;;;;;;5.07;4.45;;;17.70;99.90;;;;;;4975188;28;20195;-96
2022/07/31 01:28:08;;;;;;;7.68;4.78;;;17.70;99.90;;;;;;4975261;28;20192;-97
2022/07/31 01:31:00;;;;;;;5.50;4.50;;;17.70;99.90;;;;;;4974031;28;20184;-92
2022/07/31 01:33:30;;;;;;;8.02;4.78;;;17.80;99.90;;;;;;5008080;28;20246;-96
2022/07/31 01:36:06;;;;;;;4.88;4.45;;;17.80;99.90;;;;;;4992830;28;20180;-93
2022/07/31 01:38:36;;;;;;;5.22;4.72;;;17.70;99.90;;;;;;4976343;28;20195;-96
2022/07/31 01:41:08;;;;;;;5.32;4.78;;;17.70;99.90;;;;;;4985313;28;20203;-96
2022/07/31 01:43:42;;;;;;;4.88;4.38;;;17.80;99.90;;;;;;4998916;28;20211;-96
2022/07/31 01:46:14;;;;;;;4.95;4.45;;;17.70;99.90;;;;;;4979910;28;20164;-90
2022/07/31 01:48:45;;;;;;;6.38;4.63;;;17.70;99.90;;;;;;5008300;28;20178;-92
2022/07/31 01:51:14;;;;;;;4.75;4.25;;;17.70;99.90;;;;;;5015501;28;20279;-90
2022/07/31 01:53:47;;;;;;;5.97;4.95;;;17.70;99.90;;;;;;5023129;23;20232;-93
2022/07/31 01:56:17;;;;;;;5.57;4.72;;;17.70;99.90;;;;;;4973533;28;20189;-93
2022/07/31 01:58:48;;;;;;;6.43;4.63;;;17.70;99.90;;;;;;4973625;28;20180;-93
2022/07/31 02:01:17;;;;;;;9.80;5.03;;;17.70;99.90;;;;;;4973633;28;20164;-94
2022/07/31 02:03:46;;;;;;;7.05;4.70;;;17.60;99.90;;;;;;4973396;28;20204;-93
2022/07/31 02:06:19;;;;;;;6.20;4.80;;;17.60;99.90;;;;;;4973195;28;20642;-94
2022/07/31 02:08:51;;;;;;;5.70;4.18;;;17.50;99.90;;;;;;4981628;28;20199;-94
2022/07/31 02:11:19;;;;;;;5.03;4.60;;;17.50;99.90;;;;;;4993237;28;20180;-92
2022/07/31 02:13:52;;;;;;;4.95;4.45;;;17.50;99.90;;;;;;4993234;28;20238;-92
2022/07/31 02:16:19;;;;;;;4.68;4.22;;;17.50;99.90;;;;;;4992726;28;20219;-94
2022/07/31 02:18:49;;;;;;;4.95;4.45;;;17.50;99.90;;;;;;4992622;28;20215;-93
2022/07/31 02:21:15;;;;;;;4.43;4.03;;;17.50;99.90;;;;;;4992939;28;20180;-92
2022/07/31 02:23:44;;;;;;;4.05;3.65;;;17.50;99.90;;;;;;4992767;28;20193;-94
2022/07/31 02:26:11;;;;;;;4.00;3.70;;;17.40;99.90;;;;;;4992622;28;20168;-93
2022/07/31 02:28:44;;;;;;;5.97;4.18;;;17.50;99.90;;;;;;4992760;28;20176;-94
2022/07/31 02:31:17;;;;;;;5.13;4.28;;;17.40;99.90;;;;;;4993143;28;20262;-94
2022/07/31 02:33:46;;;;;;;6.20;4.68;;;17.30;99.90;;;;;;4993147;28;20259;-94
2022/07/31 02:36:16;;;;;;;5.22;4.40;;;17.30;99.90;;;;;;4992602;28;20203;-95
2022/07/31 02:38:48;;;;;;;5.18;4.20;;;17.30;99.90;;;;;;4992671;28;20275;-93
2022/07/31 02:41:16;;;;;;;5.38;4.85;;;17.30;99.90;;;;;;4987071;28;20190;-93
2022/07/31 02:43:49;;;;;;;4.97;4.43;;;17.30;99.90;;;;;;4973835;28;20299;-94
2022/07/31 02:46:22;;;;;;;5.18;4.47;;;17.30;99.90;;;;;;4973256;28;20200;-93
2022/07/31 02:48:57;;;;;;;5.05;3.88;;;17.30;99.90;;;;;;4974246;28;20161;-93
2022/07/31 02:51:44;;;;;;;;;;;;;;;;;;;;;
2022/07/31 02:54:11;;;;;;;5.40;4.40;;;17.20;99.90;;;;;;4974859;28;20231;-93
2022/07/31 02:56:41;;;;;;;5.40;4.88;;;17.30;99.90;;;;;;4977091;28;20285;-94
2022/07/31 02:59:08;;;;;;;5.15;4.40;;;17.30;99.90;;;;;;4978161;28;20173;-94
2022/07/31 03:01:37;;;;;;;7.72;4.43;;;17.30;99.90;;;;;;4978336;28;20203;-94
2022/07/31 03:04:14;;;;;;;5.30;4.60;;;17.30;99.90;;;;;;4977665;28;20208;-94
2022/07/31 03:06:42;;;;;;;7.13;4.30;;;17.30;99.90;;;;;;4977220;28;20188;-95
2022/07/31 03:09:10;;;;;;;6.53;4.85;;;17.30;99.90;;;;;;4977642;28;20621;-94
2022/07/31 03:11:36;;;;;;;5.07;4.57;;;17.30;99.90;;;;;;4977509;28;20216;-94
2022/07/31 03:14:13;;;;;;;4.82;4.32;;;17.30;99.90;;;;;;4977299;28;20703;-94
2022/07/31 03:16:46;;;;;;;5.30;4.63;;;17.20;99.90;;;;;;4977534;28;20255;-94
2022/07/31 03:19:19;;;;;;;7.07;4.55;;;17.20;99.90;;;;;;4977725;28;20169;-94
2022/07/31 03:21:48;;;;;;;6.47;5.60;;;17.30;99.90;;;;;;4977641;28;20230;-94
2022/07/31 03:24:14;;;;;;;7.88;4.97;;;17.30;99.90;;;;;;4978029;28;20298;-93
2022/07/31 03:26:50;;;;;;;5.60;5.00;;;17.20;99.90;;;;;;4978118;28;20687;-94
2022/07/31 03:29:16;;;;;;;6.20;5.05;;;17.20;99.90;;;;;;4977523;28;20184;-94
2022/07/31 03:31:48;;;;;;;6.32;4.78;;;17.20;99.90;;;;;;4977137;28;20184;-93
2022/07/31 03:34:16;;;;;;;7.28;5.22;;;17.20;99.90;;;;;;4977234;28;20185;-94
2022/07/31 03:36:43;;;;;;;5.43;4.80;;;17.20;99.90;;;;;;4976503;28;20582;-94
2022/07/31 03:39:15;;;;;;;5.03;4.63;;;17.20;99.90;;;;;;4976864;28;20699;-94
2022/07/31 03:41:51;;;;;;;7.38;4.68;;;17.10;99.90;;;;;;4976209;28;20180;-93
2022/07/31 03:44:22;;;;;;;5.65;4.75;;;17.10;99.90;;;;;;4976726;28;20204;-94
2022/07/31 03:47:05;;;;;;;6.70;4.78;;;17.10;99.90;;;;;;4977069;28;20205;-95
2022/07/31 03:49:41;;;;;;;6.57;4.68;;;17.10;99.90;;;;;;4978156;28;20191;-93
2022/07/31 03:52:09;;;;;;;5.63;5.00;;;17.10;99.90;;;;;;4976972;28;20668;-93
2022/07/31 03:54:41;;;;;;;5.70;5.15;;;17.10;99.90;;;;;;4976458;28;20294;-94
2022/07/31 03:57:17;;;;;;;6.70;4.93;;;17.10;99.90;;;;;;4976722;28;20205;-94
2022/07/31 04:00:08;;;;;;;5.88;4.72;;;17.10;99.90;;;;;;4976112;28;20211;-94
2022/07/31 04:02:43;;;;;;;4.88;4.38;;;17.20;99.90;;;;;;4976515;28;20176;-94
2022/07/31 04:05:22;;;;;;;;;;;;;;;;;;;;;
2022/07/31 04:07:53;;;;;;;5.25;4.75;;;17.20;99.90;;;;;;4976796;28;20200;-94
2022/07/31 04:10:37;;;;;;;5.47;4.72;;;17.20;99.90;;;;;;4977517;28;20172;-93
2022/07/31 04:13:08;;;;;;;7.95;5.22;;;17.20;99.90;;;;;;4977771;28;20648;-95
2022/07/31 04:15:46;;;;;;;5.32;4.53;;;17.20;99.90;;;;;;4977535;28;20173;-93
2022/07/31 04:18:30;;;;;;;6.13;5.25;;;17.30;99.90;;;;;;4976043;28;20216;-94
2022/07/31 04:21:05;;;;;;;6.10;4.70;;;17.30;99.90;;;;;;4976615;28;20271;-94
2022/07/31 04:23:40;;;;;;;5.00;4.50;;;17.30;99.90;;;;;;4976364;28;20727;-94
2022/07/31 04:26:17;;;;;;;6.80;4.90;;;17.30;99.90;;;;;;4976139;28;20180;-94
2022/07/31 04:28:49;;;;;;;6.07;5.00;;;17.30;99.90;;;;;;4976964;28;20164;-93
2022/07/31 04:31:15;;;;;;;7.10;4.80;;;17.30;99.90;;;;;;4976771;28;20176;-94
2022/07/31 04:33:44;;;;;;;6.40;5.63;;;17.30;99.90;;;;;;4976460;28;20284;-95
2022/07/31 04:36:16;;;;;;;5.32;4.82;;;17.40;99.90;;;;;;4976177;28;20191;-94
2022/07/31 04:38:43;;;;;;;6.57;4.90;;;17.30;99.90;;;;;;4976164;28;20177;-94
2022/07/31 04:41:33;;;;;;;8.98;4.95;;;17.30;99.90;;;;;;4976197;28;20177;-93
2022/07/31 04:44:05;;;;;;;6.72;4.97;;;17.40;99.90;;;;;;4918035;29;20371;-93
2022/07/31 04:46:32;;;;;;;5.38;4.60;;;17.30;99.90;;;;;;4969047;28;20207;-93
2022/07/31 04:49:02;;;;;;;5.50;5.00;;;17.30;99.90;;;;;;4976583;28;20165;-94
2022/07/31 04:51:28;;;;;;;6.32;4.93;;;17.40;99.90;;;;;;4976353;28;20243;-93
2022/07/31 04:53:53;;;;;;;5.07;4.53;;;17.40;99.90;;;;;;4974863;28;20236;-95
2022/07/31 05:02:52;;;;;;;6.55;5.57;;;17.50;99.90;;;;;;4925617;29;20211;-94
2022/07/31 05:05:48;;;;;;;8.05;5.55;;;17.50;99.90;;;;;;4862468;29;20208;-93
2022/07/31 05:08:14;;;;;;;7.45;6.65;;;17.50;99.90;;;;;;5056711;23;20704;-92
2022/07/31 05:13:24;;;;;;;7.95;6.82;;;17.50;99.90;;;;;;5042561;28;20282;-91
2022/07/31 05:15:56;;;;;;;8.52;7.07;;;17.50;99.90;;;;;;5021594;28;20198;-96
2022/07/31 05:18:21;;;;;;;7.50;6.65;;;17.50;99.90;;;;;;5038718;28;20163;-91
2022/07/31 05:20:47;;;;;;;8.60;7.70;;;17.50;99.90;;;;;;5033229;28;20177;-91
2022/07/31 05:23:29;;;;;;;7.97;7.18;;;17.50;99.90;;;;;;5024805;28;20203;-89
2022/07/31 05:25:56;;;;;;;8.55;7.65;;;17.50;99.90;;;;;;5031738;28;20193;-91
2022/07/31 05:28:21;;;;;;;7.95;7.25;;;17.60;99.90;;;;;;5017559;28;20171;-91
2022/07/31 05:30:47;;;;;;;10.90;7.95;;;17.60;99.90;;;;;;5000367;28;20189;-91
2022/07/31 05:33:13;;;;;;;7.68;6.90;;;17.70;99.90;;;;;;5003471;28;20206;-91
2022/07/31 05:35:38;;;;;;;8.65;7.47;;;17.70;99.90;;;;;;5021649;28;20246;-91
2022/07/31 05:38:05;;;;;;;12.50;7.68;;;17.80;99.90;;;;;;5010422;28;20251;-91
2022/07/31 05:40:30;;;;;;;7.70;7.00;;;17.80;99.90;;;;;;5015740;28;20186;-93
2022/07/31 05:42:56;;;;;;;10.18;8.35;;;17.90;99.90;;;;;;5038018;28;20591;-92
2022/07/31 05:45:21;;;;;;;10.98;8.35;;;18.00;99.90;;;;;;5038424;28;20174;-93
2022/07/31 05:47:47;;;;;;;9.18;8.25;;;18.10;99.90;;;;;;5038937;28;20208;-92
2022/07/31 05:50:13;;;;;;;12.38;8.15;;;18.10;99.90;;;;;;5028897;28;20178;-93
2022/07/31 05:52:39;;;;;;;9.63;8.52;;;18.10;99.90;;;;;;5038883;28;20192;-93
2022/07/31 05:55:17;;;;;;;10.93;9.43;;;18.10;99.90;;;;;;5024247;28;20232;-93
2022/07/31 05:57:43;;;;;;;10.05;9.15;;;18.20;99.90;;;;;;5037377;28;20181;-93
2022/07/31 06:00:09;;;;;;;12.23;8.52;;;18.20;99.90;;;;;;5036026;28;20179;-91
2022/07/31 06:02:35;;;;;;;10.52;9.23;;;18.30;99.90;;;;;;5037193;28;20182;-93
2022/07/31 06:05:01;;;;;;;10.48;9.27;;;18.30;99.90;;;;;;5034057;28;20210;-93
2022/07/31 06:07:27;;;;;;;10.13;8.52;;;18.40;99.90;;;;;;5004070;28;20229;-93
2022/07/31 06:09:52;;;;;;;12.60;10.32;;;18.40;99.90;;;;;;4978720;28;20189;-92
2022/07/31 06:12:19;;;;;;;12.32;9.50;;;18.40;99.90;;;;;;4976767;28;20271;-92
2022/07/31 06:14:45;;;;;;;12.00;9.30;;;18.40;99.90;;;;;;4976179;28;20578;-92
2022/07/31 06:17:13;;;;;;;10.93;9.73;;;18.50;99.90;;;;;;4976051;28;20180;-92
2022/07/31 06:19:38;;;;;;;14.40;10.80;;;18.50;99.90;;;;;;4983939;28;20727;-91
2022/07/31 06:22:04;;;;;;;11.85;10.13;;;18.50;99.90;;;;;;4996227;28;20180;-92
2022/07/31 06:24:31;;;;;;;13.65;9.80;;;18.60;99.90;;;;;;5004743;28;20213;-92
2022/07/31 06:27:03;;;;;;;12.35;9.15;;;18.60;99.90;;;;;;5011813;28;20191;-92
2022/07/31 06:29:29;;;;;;;11.65;10.02;;;18.70;99.90;;;;;;5017100;28;20191;-91
2022/07/31 06:31:55;;;;;;;11.95;9.80;;;18.70;99.90;;;;;;5000770;28;20202;-93
2022/07/31 06:34:22;;;;;;;12.35;9.63;;;18.80;99.90;;;;;;4999222;28;20230;-91
2022/07/31 06:36:50;;;;;;;11.43;9.73;;;18.90;99.90;;;;;;4979510;28;20198;-88
2022/07/31 06:39:16;;;;;;;13.73;10.60;;;18.90;99.90;;;;;;4981296;28;20612;-90
2022/07/31 06:41:48;;;;;;;13.15;9.95;;;18.90;99.90;;;;;;4989409;28;20197;-88
2022/07/31 06:44:15;;;;;;;14.52;9.75;;;19.00;99.90;;;;;;4998260;28;20228;-90
2022/07/31 06:46:43;;;;;;;12.27;8.25;;;19.00;99.90;;;;;;4998482;28;20194;-90
2022/07/31 06:49:09;;;;;;;10.18;8.30;;;19.10;99.90;;;;;;4998689;28;20183;-90
2022/07/31 06:51:35;;;;;;;11.57;9.55;;;19.20;99.90;;;;;;5003090;28;20183;-89
2022/07/31 06:54:02;;;;;;;11.80;9.77;;;19.20;99.90;;;;;;5005096;28;20187;-90
2022/07/31 06:56:48;;;;;;;11.32;9.70;;;19.40;99.90;;;;;;4997043;28;20192;-91
2022/07/31 06:59:13;;;;;;;10.57;8.95;;;19.40;99.90;;;;;;5017492;28;20254;-92
2022/07/31 07:01:39;;;;;;;11.55;8.95;;;19.50;99.90;;;;;;5017295;28;20591;-92
2022/07/31 07:04:05;;;;;;;12.85;8.95;;;19.60;99.90;;;;;;5018437;28;20214;-93
2022/07/31 07:06:30;;;;;;;8.05;6.97;;;19.70;99.90;;;;;;5002299;28;20556;-93
2022/07/31 07:08:59;;;;;;;12.57;8.45;;;19.80;99.90;;;;;;4998406;28;20184;-92
2022/07/31 07:11:26;;;;;;;11.93;8.20;;;19.90;99.90;;;;;;4983599;28;20176;-92
2022/07/31 07:13:56;;;;;;;11.25;7.60;;;20.00;99.90;;;;;;4989809;28;20219;-91
2022/07/31 07:16:21;;;;;;;10.80;6.57;;;20.00;99.90;;;;;;4989321;28;20180;-93
2022/07/31 07:18:48;;;;;;;7.93;5.70;;;20.10;99.90;;;;;;4993071;28;20284;-93
2022/07/31 07:21:14;;;;;;;9.15;6.43;;;20.20;99.90;;;;;;5001900;28;20623;-94
2022/07/31 07:23:40;;;;;;;7.63;5.72;;;20.20;99.90;;;;;;5007084;28;20589;-94
2022/07/31 07:26:07;;;;;;;6.35;5.10;;;20.20;99.90;;;;;;5002343;28;20237;-95
2022/07/31 07:28:33;;;;;;;7.53;6.30;;;20.30;99.90;;;;;;5008947;28;20187;-95
2022/07/31 07:31:00;;;;;;;8.68;5.78;;;20.30;99.90;;;;;;5001138;28;20662;-95
2022/07/31 07:33:25;;;;;;;5.63;4.43;;;20.30;99.90;;;;;;5000427;28;20487;-95
2022/07/31 07:35:51;;;;;;;7.50;5.72;;;20.40;99.90;;;;;;4988289;28;20188;-94
2022/07/31 07:38:36;;;;;;;7.30;4.95;;;20.50;99.90;;;;;;4999240;28;20184;-95
2022/07/31 07:41:01;;;;;;;7.93;5.15;;;20.60;99.90;;;;;;4997382;28;20210;-94
2022/07/31 07:43:27;;;;;;;7.85;4.63;;;20.70;99.90;;;;;;4996315;28;20231;-95
2022/07/31 07:45:53;;;;;;;8.35;4.65;;;20.90;99.90;;;;;;4997644;28;20652;-94
2022/07/31 07:48:19;;;;;;;4.45;4.00;;;21.00;99.90;;;;;;4997144;28;20211;-94
2022/07/31 07:50:45;;;;;;;10.20;4.53;;;21.10;99.90;;;;;;4997581;28;20218;-94
2022/07/31 07:53:11;;;;;;;6.68;4.25;;;21.20;99.90;;;;;;4997108;28;20290;-90
2022/07/31 07:55:37;;;;;;;4.57;3.35;;;21.20;99.90;;;;;;5002735;28;20189;-91
2022/07/31 07:58:14;;;;;;;7.53;4.35;;;21.20;99.90;;;;;;5014913;28;20183;-91
2022/07/31 08:00:40;;;;;;;5.50;3.50;;;21.20;99.90;;;;;;4990643;28;20637;-91
2022/07/31 08:03:06;;;;;;;4.20;3.40;;;21.20;99.90;;;;;;4977223;28;20224;-90
2022/07/31 08:05:31;;;;;;;4.43;3.33;;;21.10;99.90;;;;;;4978232;28;20202;-93
2022/07/31 08:07:58;;;;;;;6.18;3.60;;;21.10;99.90;;;;;;4977307;28;20581;-92
2022/07/31 08:10:24;;;;;;;6.47;3.65;;;21.10;99.90;;;;;;4977577;28;20187;-92
2022/07/31 08:12:49;;;;;;;4.85;3.05;;;21.10;99.90;;;;;;5004600;28;20181;-91
2022/07/31 08:15:15;;;;;;;5.40;3.83;;;21.10;99.90;;;;;;5009222;28;20623;-91
2022/07/31 08:17:42;;;;;;;6.03;3.08;;;21.10;99.90;;;;;;5010111;28;20256;-89
2022/07/31 08:20:08;;;;;;;5.38;2.88;;;21.10;99.90;;;;;;4984649;28;20176;-91
2022/07/31 08:22:33;;;;;;;6.80;2.58;;;21.10;99.90;;;;;;4995818;28;20180;-90
2022/07/31 08:24:59;;;;;;;2.83;2.40;;;21.10;99.90;;;;;;4997333;28;20310;-93
2022/07/31 08:27:27;;;;;;;3.58;2.35;;;21.10;99.90;;;;;;4996046;28;20192;-89
2022/07/31 08:30:00;;;;;;;2.78;2.10;;;21.20;99.90;;;;;;5008991;28;20246;-90
2022/07/31 08:32:26;;;;;;;4.10;2.13;;;21.20;99.90;;;;;;5016118;28;20179;-89
2022/07/31 08:34:53;;;;;;;5.13;2.10;;;21.20;99.90;;;;;;5015172;28;20633;-87
2022/07/31 08:37:19;;;;;;;3.78;2.78;;;21.30;99.90;;;;;;5001374;28;20187;-89
2022/07/31 08:39:47;;;;;;;3.20;2.33;;;21.30;99.90;;;;;;4995548;28;20179;-88
2022/07/31 08:42:13;;;;;;;4.85;2.42;;;21.30;99.90;;;;;;4996397;28;20341;-87
2022/07/31 08:44:41;;;;;;;3.97;2.83;;;21.50;99.90;;;;;;4995798;28;20319;-87
2022/07/31 08:47:08;;;;;;;4.10;3.13;;;21.60;99.90;;;;;;4996573;28;20495;-88
2022/07/31 08:49:43;;;;;;;6.05;3.75;;;21.80;99.90;;;;;;4995424;28;20734;-89
2022/07/31 08:52:11;;;;;;;6.05;3.22;;;22.00;99.90;;;;;;4998241;28;20488;-90
2022/07/31 08:54:45;;;;;;;4.43;2.83;;;22.10;99.90;;;;;;5005874;28;20192;-88
2022/07/31 08:57:11;;;;;;;5.18;3.00;;;22.20;99.90;;;;;;5006605;28;20579;-87
2022/07/31 08:59:42;;;;;;;6.13;2.80;;;22.20;99.90;;;;;;5012871;28;20183;-87
2022/07/31 09:02:08;;;;;;;4.90;2.53;;;22.30;99.90;;;;;;4994397;28;20219;-86
2022/07/31 09:04:34;;;;;;;4.55;3.20;;;22.40;99.90;;;;;;4995735;28;20262;-88
2022/07/31 09:07:00;;;;;;;4.30;2.38;;;22.50;99.90;;;;;;5011269;28;20688;-86
2022/07/31 09:09:29;;;;;;;5.32;2.60;;;22.50;99.90;;;;;;5035019;28;20171;-86
2022/07/31 09:11:55;;;;;;;7.50;3.00;;;22.50;99.90;;;;;;5029497;28;20557;-89
2022/07/31 09:14:26;;;;;;;4.22;2.67;;;22.60;99.90;;;;;;5035111;28;20178;-89
2022/07/31 09:16:53;;;;;;;5.65;2.25;;;22.60;99.90;;;;;;5028502;28;20193;-87
2022/07/31 09:19:21;;;;;;;4.85;2.30;;;22.70;99.90;;;;;;5036515;28;20185;-87
2022/07/31 09:21:47;;;;;;;4.88;2.10;;;22.90;99.90;;;;;;5037317;28;20173;-86
2022/07/31 09:24:25;;;;;;;3.75;2.40;;;23.10;99.90;;;;;;5016121;28;20668;-84
2022/07/31 09:27:01;;;;;;;5.53;2.40;;;23.30;99.90;;;;;;5034817;28;20154;-86
2022/07/31 09:29:36;;;;;;;3.88;2.40;;;23.40;99.90;;;;;;5034855;28;20175;-88
2022/07/31 09:32:13;;;;;;;4.20;1.75;;;23.40;99.90;;;;;;5034500;28;20182;-86
2022/07/31 09:34:40;;;;;;;3.80;1.88;;;23.50;99.90;;;;;;5017359;28;20527;-86
2022/07/31 09:37:27;;;;;;;4.63;2.20;;;23.50;99.90;;;;;;5034505;28;20182;-88
2022/07/31 09:39:55;;;;;;;3.33;1.90;;;23.50;99.60;;;;;;5033096;28;20245;-85
2022/07/31 09:42:22;;;;;;;2.80;2.33;;;23.60;99.80;;;;;;5034948;28;20517;-87
2022/07/31 09:44:49;;;;;;;6.50;2.08;;;23.70;99.00;;;;;;5025093;28;20206;-88
2022/07/31 09:47:29;;;;;;;4.20;2.00;;;23.80;99.70;;;;;;5029557;28;20174;-89
2022/07/31 09:49:57;;;;;;;3.47;2.05;;;23.80;99.50;;;;;;5027743;28;20178;-86
2022/07/31 09:52:24;;;;;;;2.38;2.03;;;23.80;99.10;;;;;;5034542;28;20162;-87
2022/07/31 09:55:19;;;;;;;5.65;2.30;;;23.90;98.40;;;;;;5032662;28;20194;-86
2022/07/31 09:58:11;;;;;;;5.53;2.30;;;24.10;99.80;;;;;;5009809;28;20193;-86
2022/07/31 10:00:38;;;;;;;5.35;2.30;;;24.30;98.60;;;;;;5012722;28;20629;-88
2022/07/31 10:03:05;;;;;;;5.65;2.35;;;24.40;98.40;;;;;;5034765;28;20182;-89
2022/07/31 10:05:31;;;;;;;3.08;1.90;;;24.40;97.30;;;;;;5036640;28;20182;-91
2022/07/31 10:07:58;;;;;;;3.38;1.90;;;24.40;97.90;;;;;;5037481;28;20294;-88
2022/07/31 10:10:29;;;;;;;4.07;1.70;;;24.50;97.20;;;;;;5037643;28;20174;-89
2022/07/31 10:12:58;;;;;;;3.95;1.75;;;24.40;97.10;;;;;;5030200;28;20654;-89
2022/07/31 10:15:25;;;;;;;2.30;1.50;;;24.40;98.30;;;;;;5033258;28;20217;-88
2022/07/31 10:17:52;;;;;;;3.45;1.80;;;24.50;97.30;;;;;;5040487;28;20186;-88
2022/07/31 10:20:25;;;;;;;3.15;1.60;;;24.60;97.00;;;;;;5037291;28;20186;-89
2022/07/31 10:23:03;;;;;;;5.57;1.70;;;24.60;94.90;;;;;;5037144;28;20177;-89
2022/07/31 10:25:29;;;;;;;3.08;1.83;;;24.60;96.50;;;;;;5025976;28;20205;-87
2022/07/31 10:27:56;;;;;;;4.78;1.50;;;24.70;95.70;;;;;;5020181;28;20179;-89
2022/07/31 10:30:24;;;;;;;4.40;1.80;;;24.80;95.10;;;;;;5036439;28;20205;-89
2022/07/31 10:32:50;;;;;;;3.53;1.80;;;24.80;95.90;;;;;;5038561;28;20166;-90
2022/07/31 10:35:17;;;;;;;1.80;1.30;;;24.80;96.30;;;;;;5030934;28;20186;-90
2022/07/31 10:38:29;;;;;;;2.97;1.67;;;24.90;95.00;;;;;;5001117;28;20183;-88
2022/07/31 10:41:04;;;;;;;2.20;1.60;;;24.90;94.00;;;;;;4925199;29;20237;-89
2022/07/31 10:43:50;;;;;;;2.53;1.50;;;25.00;94.70;;;;;;4933852;29;20212;-87
2022/07/31 10:46:26;;;;;;;3.33;1.70;;;24.90;94.30;;;;;;4988000;28;20660;-89
2022/07/31 10:48:52;;;;;;;3.72;1.48;;;25.10;95.30;;;;;;5027900;28;20691;-86
2022/07/31 10:51:21;;;;;;;2.28;1.60;;;25.20;94.40;;;;;;5038798;28;20313;-90
2022/07/31 10:53:58;;;;;;;1.60;1.48;;;25.40;93.90;;;;;;5036453;28;20178;-90
2022/07/31 10:56:24;;;;;;;2.53;1.50;;;25.60;92.80;;;;;;5037971;28;20203;-90
2022/07/31 10:58:55;;;;;;;2.60;1.30;;;25.70;91.80;;;;;;5037274;28;20190;-90
2022/07/31 11:01:27;;;;;;;3.22;1.42;;;25.60;92.30;;;;;;5020131;28;20175;-87
2022/07/31 11:03:59;;;;;;;3.40;1.50;;;25.60;92.20;;;;;;5019858;28;20202;-90
2022/07/31 11:06:25;;;;;;;2.38;1.30;;;25.70;92.90;;;;;;5038237;28;20222;-91
2022/07/31 11:08:53;;;;;;;2.45;1.20;;;25.90;90.80;;;;;;5020078;28;20175;-89
2022/07/31 11:11:33;;;;;;;4.38;1.30;;;26.00;91.50;;;;;;5020197;28;20166;-90
2022/07/31 11:13:59;;;;;;;2.13;1.58;;;26.20;91.60;;;;;;5037851;28;20181;-90
2022/07/31 11:16:25;;;;;;;1.40;1.20;;;25.80;90.50;;;;;;5035525;28;20179;-90
2022/07/31 11:19:05;;;;;;;1.88;1.30;;;25.90;91.20;;;;;;5048339;28;20182;-90
2022/07/31 11:21:39;;;;;;;2.30;1.23;;;26.00;92.40;;;;;;5039551;28;20273;-88
2022/07/31 11:24:31;;;;;;;2.92;1.25;;;26.10;92.30;;;;;;5020632;28;20229;-89
2022/07/31 11:26:57;;;;;;;2.53;1.30;;;26.20;91.20;;;;;;5034639;28;20625;-89
2022/07/31 11:29:33;;;;;;;3.13;1.40;;;26.30;91.00;;;;;;5036213;28;20190;-89
2022/07/31 11:32:10;;;;;;;4.60;1.50;;;26.40;91.00;;;;;;5038026;28;20243;-88
2022/07/31 11:34:54;;;;;;;3.30;1.20;;;26.40;91.20;;;;;;5057372;28;20589;-88
2022/07/31 11:37:25;;;;;;;3.30;1.20;;;26.40;88.10;;;;;;5057694;28;20224;-86
2022/07/31 11:39:52;;;;;;;2.00;1.17;;;26.30;89.40;;;;;;5035840;28;20182;-86
2022/07/31 11:42:27;;;;;;;5.30;1.40;;;26.40;90.20;;;;;;5035949;28;20505;-85
2022/07/31 11:45:00;;;;;;;1.45;1.33;;;26.50;90.80;;;;;;5036195;28;20236;-88
2022/07/31 11:47:36;;;;;;;1.90;1.30;;;26.70;90.60;;;;;;5028958;28;20633;-88
2022/07/31 11:50:03;;;;;;;1.40;1.13;;;26.70;89.40;;;;;;5031889;28;20186;-88
2022/07/31 11:52:29;;;;;;;2.60;1.15;;;26.90;89.50;;;;;;5034347;28;20190;-89
2022/07/31 11:55:07;;;;;;;3.63;1.10;;;27.00;88.70;;;;;;5038192;28;20188;-87
2022/07/31 11:57:33;;;;;;;2.05;1.00;;;27.20;87.10;;;;;;5028185;28;20480;-89
2022/07/31 12:00:12;;;;;;;2.47;1.23;;;27.30;88.30;;;;;;5036776;28;20186;-87
2022/07/31 12:02:44;;;;;;;4.35;1.10;;;27.40;86.90;;;;;;5036821;28;20621;-88
2022/07/31 12:05:12;;;;;;;4.30;1.30;;;27.40;86.70;;;;;;5032568;28;20561;-88
2022/07/31 12:07:40;;;;;;;2.05;1.20;;;27.40;88.00;;;;;;5036854;28;20301;-90
2022/07/31 12:10:08;;;;;;;1.48;1.17;;;27.40;87.40;;;;;;5035317;28;20186;-89
2022/07/31 12:12:34;;;;;;;2.70;1.35;;;27.50;89.70;;;;;;5011902;28;20269;-86
2022/07/31 12:14:59;;;;;;;2.55;1.17;;;27.70;85.50;;;;;;5000470;28;20258;-88
2022/07/31 12:17:25;;;;;;;4.30;1.23;;;27.80;87.10;;;;;;5036209;28;20178;-87
2022/07/31 12:19:51;;;;;;;2.28;1.35;;;27.70;87.90;;;;;;5029772;28;20177;-87
2022/07/31 12:22:19;;;;;;;2.05;1.13;;;27.60;86.30;;;;;;5021136;28;20183;-88
2022/07/31 12:24:49;;;;;;;2.70;1.10;;;27.50;87.30;;;;;;5022888;28;20210;-87
2022/07/31 12:27:16;;;;;;;2.88;1.30;;;27.40;87.10;;;;;;5015786;28;20181;-90
2022/07/31 12:29:43;;;;;;;1.67;1.20;;;27.20;88.10;;;;;;5018949;28;20608;-90
2022/07/31 12:32:10;;;;;;;3.95;1.10;;;27.00;88.30;;;;;;5020748;28;20175;-88
2022/07/31 12:34:40;;;;;;;1.35;1.00;;;26.80;87.80;;;;;;5017805;28;20673;-86
2022/07/31 12:37:11;;;;;;;1.02;0.82;;;26.70;89.00;;;;;;5033835;28;20231;-87
2022/07/31 12:39:49;;;;;;;3.28;1.08;;;26.50;88.70;;;;;;5038299;28;20493;-88
2022/07/31 12:42:43;;;;;;;1.00;0.80;;;26.50;89.00;;;;;;5040887;28;20178;-88
2022/07/31 12:45:09;;;;;;;1.48;1.13;;;26.40;88.60;;;;;;5044287;28;20213;-89
2022/07/31 12:47:35;;;;;;;2.92;1.10;;;26.50;89.80;;;;;;5041516;28;20186;-89
2022/07/31 12:50:02;;;;;;;3.10;1.30;;;26.70;88.40;;;;;;5055196;28;20224;-87
2022/07/31 12:52:30;;;;;;;1.50;1.05;;;26.80;88.70;;;;;;5034656;28;20265;-90
2022/07/31 12:54:57;;;;;;;1.33;0.90;;;26.80;88.00;;;;;;5034656;28;20269;-89
2022/07/31 12:57:23;;;;;;;1.52;1.20;;;26.90;86.50;;;;;;5033907;28;20636;-86
2022/07/31 12:59:48;;;;;;;3.10;1.40;;;27.10;87.70;;;;;;5052935;28;20178;-90
2022/07/31 13:02:16;;;;;;;2.40;1.00;;;27.50;87.10;;;;;;5055939;28;20181;-87
2022/07/31 13:04:42;;;;;;;2.55;1.13;;;27.90;85.40;;;;;;5055485;28;20532;-88
2022/07/31 13:07:07;;;;;;;3.20;1.05;;;28.30;84.20;;;;;;5051031;28;20225;-89
2022/07/31 13:09:33;;;;;;;3.08;1.40;;;28.40;82.30;;;;;;5036685;28;20177;-89
2022/07/31 13:12:00;;;;;;;2.72;1.13;;;28.50;82.50;;;;;;5023162;28;20217;-89